Terminal Aerodrome Forecast
Issued by NWS

Home | Current Version | Previous Version | Text Only | Print | Product List | Glossary On
Versions: 1 2 3 4 5 6 7 8 9 10 11 12 13 14 15 16 17
000
FTUS45 KSLC 240104 AAA
TAFLGU
TAF AMD
KLGU 240104Z 2401/2424 36010KT P6SM BKN080 BKN120
     FM240200 35004KT P6SM SCT080 BKN120
     FM241800 34006KT P6SM SCT080 BKN120=

USA.gov is the U.S. government's official web portal to all federal, state and local government web resources and services.